Ljubljana/bezigrad, Slovenia

10:31 AM CET on February 20, 2017 (GMT +0100)
Herbersteinova ulica | | Change Station

Elev 991 ft 46.07 °N, 14.51 °E | Updated 1 minute ago

Mostly Cloudy
Mostly Cloudy
41.7 °F
Feels Like 42 °F
N
0.7
Wind Variable Wind from NW
Gusts 3.1 mph

Today
High -- | Low -- °F
--% Chance of Precip.
Yesterday
High -- | Low -- °F
Precip. -- in
Pressure 30.21 in
Visibility -9999.0 miles
Clouds Few 200 ft
Windchill 42 °F
Dew Point 35 °F
Humidity 78%
Rainfall 0.00 in
Snow Depth Not available.
6:56 AM 5:35 PM
Waning Crescent, 35% visible
METAR LOWK 200920Z 07003KT 040V110 3800 0650E R10/P1500N R28/0650N BCFG FEW002 03/M00 Q1023 R10L/19//95 BECMG 8000
Pressure 30.21 in
Visibility -9999.0 miles
Clouds Few 200 ft
Windchill 42 °F
Dew Point 35 °F
Humidity 78%
Rainfall 0.00 in
Snow Depth Not available.
6:56 AM 5:35 PM
Waning Crescent, 35% visible
METAR LOWK 200920Z 07003KT 040V110 3800 0650E R10/P1500N R28/0650N BCFG FEW002 03/M00 Q1023 R10L/19//95 BECMG 8000

Get Your Daily Forecast Email!

Thanks for signing up!

Be on the lookout for a verification email in your inbox.

You'll start receiving the daily forecast at 8 AM.

×

10-Day Weather Forecast

×

Almanac

Astronomy

Feb. 20, 2017 Rise Set
Actual Time
Civil Twilight
Nautical Twilight
Astronomical Twilight
Moon
Length of Visible Light
Length of Day
Tomorrow will be .
, % of the Moon is Illuminated

Today's Extremes

Country Highs Country Lows

Community

WunderPhotos

Upload Photos

1,962,540 photos uploaded!

WunderBlog® & News

Nearby

Air Quality

  Air Quality AQ Index Pollutant
Not available.

Snow Depth

Station Depth Elevation

Earthquake Activity

City Distance Mag. Time & Date
Minimum magnitude displayed is 2.5.

Coastal Water Temperatures

Place Temperature

Stations

Nearby Weather Stations

Station Location Temp. Windchill Dew Point Humidity Wind Precip. Elev Updated Type